sensor_id;sensor_type;location;lat;lon;timestamp;P1;durP1;ratioP1;P2;durP2;ratioP2
27383;SDS011;14851;51.166;4.760;2024-02-15T00:00:30;18.63;;;7.95;;
27383;SDS011;14851;51.166;4.760;2024-02-15T00:02:58;14.93;;;6.88;;
27383;SDS011;14851;51.166;4.760;2024-02-15T00:05:25;13.07;;;7.05;;
27383;SDS011;14851;51.166;4.760;2024-02-15T00:07:54;12.25;;;7.03;;
27383;SDS011;14851;51.166;4.760;2024-02-15T00:10:20;12.40;;;6.70;;
27383;SDS011;14851;51.166;4.760;2024-02-15T00:12:48;13.55;;;7.07;;
27383;SDS011;14851;51.166;4.760;2024-02-15T00:15:19;16.40;;;7.10;;
27383;SDS011;14851;51.166;4.760;2024-02-15T00:17:45;15.93;;;6.60;;
27383;SDS011;14851;51.166;4.760;2024-02-15T00:20:14;13.25;;;6.65;;
27383;SDS011;14851;51.166;4.760;2024-02-15T00:22:43;12.60;;;6.43;;
27383;SDS011;14851;51.166;4.760;2024-02-15T00:25:12;13.05;;;6.00;;
27383;SDS011;14851;51.166;4.760;2024-02-15T00:27:39;10.05;;;5.50;;
27383;SDS011;14851;51.166;4.760;2024-02-15T00:30:11;14.27;;;4.82;;
27383;SDS011;14851;51.166;4.760;2024-02-15T00:32:47;10.77;;;5.68;;
27383;SDS011;14851;51.166;4.760;2024-02-15T00:35:19;10.85;;;5.93;;
27383;SDS011;14851;51.166;4.760;2024-02-15T00:37:45;14.60;;;6.00;;
27383;SDS011;14851;51.166;4.760;2024-02-15T00:40:11;11.38;;;5.60;;
27383;SDS011;14851;51.166;4.760;2024-02-15T00:42:37;12.70;;;5.47;;
27383;SDS011;14851;51.166;4.760;2024-02-15T00:45:04;15.13;;;5.53;;
27383;SDS011;14851;51.166;4.760;2024-02-15T00:47:34;12.43;;;5.40;;
27383;SDS011;14851;51.166;4.760;2024-02-15T00:50:03;7.78;;;4.43;;
27383;SDS011;14851;51.166;4.760;2024-02-15T00:52:30;12.18;;;5.95;;
27383;SDS011;14851;51.166;4.760;2024-02-15T00:54:57;14.18;;;5.50;;
27383;SDS011;14851;51.166;4.760;2024-02-15T00:57:22;14.73;;;5.32;;
27383;SDS011;14851;51.166;4.760;2024-02-15T00:59:49;11.63;;;5.10;;
27383;SDS011;14851;51.166;4.760;2024-02-15T01:02:15;11.80;;;5.88;;
27383;SDS011;14851;51.166;4.760;2024-02-15T01:04:43;17.67;;;5.78;;
27383;SDS011;14851;51.166;4.760;2024-02-15T01:07:11;10.52;;;5.32;;
27383;SDS011;14851;51.166;4.760;2024-02-15T01:09:37;14.48;;;5.05;;
27383;SDS011;14851;51.166;4.760;2024-02-15T01:12:04;10.45;;;5.25;;
27383;SDS011;14851;51.166;4.760;2024-02-15T01:14:30;12.80;;;4.50;;
27383;SDS011;14851;51.166;4.760;2024-02-15T01:16:57;12.65;;;4.70;;
27383;SDS011;14851;51.166;4.760;2024-02-15T01:19:23;15.18;;;5.25;;
27383;SDS011;14851;51.166;4.760;2024-02-15T01:21:50;13.05;;;4.53;;
27383;SDS011;14851;51.166;4.760;2024-02-15T01:24:16;13.60;;;4.28;;
27383;SDS011;14851;51.166;4.760;2024-02-15T01:26:42;13.40;;;4.00;;
27383;SDS011;14851;51.166;4.760;2024-02-15T01:29:09;14.23;;;4.55;;
27383;SDS011;14851;51.166;4.760;2024-02-15T01:31:37;13.07;;;3.92;;
27383;SDS011;14851;51.166;4.760;2024-02-15T01:34:04;10.13;;;3.47;;
27383;SDS011;14851;51.166;4.760;2024-02-15T01:36:33;12.02;;;3.95;;
27383;SDS011;14851;51.166;4.760;2024-02-15T01:38:59;14.23;;;4.20;;
27383;SDS011;14851;51.166;4.760;2024-02-15T01:41:24;10.30;;;3.42;;
27383;SDS011;14851;51.166;4.760;2024-02-15T01:43:51;11.95;;;4.03;;
27383;SDS011;14851;51.166;4.760;2024-02-15T01:46:17;11.75;;;3.90;;
27383;SDS011;14851;51.166;4.760;2024-02-15T01:48:49;14.30;;;3.88;;
27383;SDS011;14851;51.166;4.760;2024-02-15T01:51:15;11.30;;;3.47;;
27383;SDS011;14851;51.166;4.760;2024-02-15T01:53:43;13.73;;;3.47;;
27383;SDS011;14851;51.166;4.760;2024-02-15T01:56:10;10.55;;;3.60;;
27383;SDS011;14851;51.166;4.760;2024-02-15T01:58:44;10.40;;;3.17;;
27383;SDS011;14851;51.166;4.760;2024-02-15T02:01:14;12.52;;;3.70;;
27383;SDS011;14851;51.166;4.760;2024-02-15T02:03:40;13.00;;;4.35;;
27383;SDS011;14851;51.166;4.760;2024-02-15T02:06:07;9.80;;;3.50;;
27383;SDS011;14851;51.166;4.760;2024-02-15T02:08:36;9.10;;;3.45;;
27383;SDS011;14851;51.166;4.760;2024-02-15T02:11:02;12.00;;;3.38;;
27383;SDS011;14851;51.166;4.760;2024-02-15T02:13:29;8.82;;;3.22;;
27383;SDS011;14851;51.166;4.760;2024-02-15T02:15:55;8.40;;;2.85;;
27383;SDS011;14851;51.166;4.760;2024-02-15T02:18:22;14.38;;;3.35;;
27383;SDS011;14851;51.166;4.760;2024-02-15T02:20:49;10.60;;;2.85;;
27383;SDS011;14851;51.166;4.760;2024-02-15T02:23:16;10.80;;;3.05;;
27383;SDS011;14851;51.166;4.760;2024-02-15T02:25:48;11.20;;;3.00;;
27383;SDS011;14851;51.166;4.760;2024-02-15T02:28:14;15.13;;;3.45;;
27383;SDS011;14851;51.166;4.760;2024-02-15T02:30:43;8.10;;;2.63;;
27383;SDS011;14851;51.166;4.760;2024-02-15T02:33:11;9.32;;;2.78;;
27383;SDS011;14851;51.166;4.760;2024-02-15T02:35:44;13.30;;;3.13;;
27383;SDS011;14851;51.166;4.760;2024-02-15T02:38:11;9.93;;;2.53;;
27383;SDS011;14851;51.166;4.760;2024-02-15T02:40:38;11.50;;;3.40;;
27383;SDS011;14851;51.166;4.760;2024-02-15T02:43:04;11.00;;;2.78;;
27383;SDS011;14851;51.166;4.760;2024-02-15T02:45:31;11.77;;;3.05;;
27383;SDS011;14851;51.166;4.760;2024-02-15T02:47:57;8.93;;;2.70;;
27383;SDS011;14851;51.166;4.760;2024-02-15T02:50:23;10.80;;;2.88;;
27383;SDS011;14851;51.166;4.760;2024-02-15T02:52:50;13.05;;;3.38;;
27383;SDS011;14851;51.166;4.760;2024-02-15T02:55:17;11.75;;;2.53;;
27383;SDS011;14851;51.166;4.760;2024-02-15T02:57:44;9.30;;;2.60;;
27383;SDS011;14851;51.166;4.760;2024-02-15T03:00:11;14.75;;;2.88;;
27383;SDS011;14851;51.166;4.760;2024-02-15T03:02:45;14.00;;;2.80;;
27383;SDS011;14851;51.166;4.760;2024-02-15T03:05:12;9.00;;;2.72;;
27383;SDS011;14851;51.166;4.760;2024-02-15T03:07:43;8.20;;;2.80;;
27383;SDS011;14851;51.166;4.760;2024-02-15T03:10:13;7.13;;;2.28;;
27383;SDS011;14851;51.166;4.760;2024-02-15T03:12:39;8.57;;;2.95;;
27383;SDS011;14851;51.166;4.760;2024-02-15T03:15:06;9.32;;;2.83;;
27383;SDS011;14851;51.166;4.760;2024-02-15T03:17:39;12.88;;;2.83;;
27383;SDS011;14851;51.166;4.760;2024-02-15T03:20:07;9.38;;;2.67;;
27383;SDS011;14851;51.166;4.760;2024-02-15T03:22:38;10.63;;;3.20;;
27383;SDS011;14851;51.166;4.760;2024-02-15T03:25:07;11.68;;;2.88;;
27383;SDS011;14851;51.166;4.760;2024-02-15T03:27:36;10.40;;;2.70;;
27383;SDS011;14851;51.166;4.760;2024-02-15T03:30:08;7.00;;;2.35;;
27383;SDS011;14851;51.166;4.760;2024-02-15T03:32:36;6.97;;;2.50;;
27383;SDS011;14851;51.166;4.760;2024-02-15T03:35:02;9.93;;;2.97;;
27383;SDS011;14851;51.166;4.760;2024-02-15T03:37:29;8.18;;;2.50;;
27383;SDS011;14851;51.166;4.760;2024-02-15T03:40:00;9.77;;;3.08;;
27383;SDS011;14851;51.166;4.760;2024-02-15T03:42:26;7.82;;;3.13;;
27383;SDS011;14851;51.166;4.760;2024-02-15T03:44:55;9.77;;;2.83;;
27383;SDS011;14851;51.166;4.760;2024-02-15T03:47:21;10.52;;;2.88;;
27383;SDS011;14851;51.166;4.760;2024-02-15T03:49:48;13.23;;;3.03;;
27383;SDS011;14851;51.166;4.760;2024-02-15T03:52:14;7.85;;;2.28;;
27383;SDS011;14851;51.166;4.760;2024-02-15T03:54:40;7.85;;;2.70;;
27383;SDS011;14851;51.166;4.760;2024-02-15T03:57:08;10.48;;;2.83;;
27383;SDS011;14851;51.166;4.760;2024-02-15T03:59:42;9.63;;;3.42;;
27383;SDS011;14851;51.166;4.760;2024-02-15T04:02:18;8.73;;;2.30;;
27383;SDS011;14851;51.166;4.760;2024-02-15T04:05:06;16.17;;;3.38;;
27383;SDS011;14851;51.166;4.760;2024-02-15T04:07:37;9.55;;;2.78;;
27383;SDS011;14851;51.166;4.760;2024-02-15T04:10:16;8.25;;;2.70;;
27383;SDS011;14851;51.166;4.760;2024-02-15T04:12:46;7.95;;;2.30;;
27383;SDS011;14851;51.166;4.760;2024-02-15T04:15:12;8.40;;;2.42;;
27383;SDS011;14851;51.166;4.760;2024-02-15T04:17:41;11.45;;;3.22;;
27383;SDS011;14851;51.166;4.760;2024-02-15T04:20:10;12.40;;;3.63;;
27383;SDS011;14851;51.166;4.760;2024-02-15T04:22:37;9.55;;;2.70;;
27383;SDS011;14851;51.166;4.760;2024-02-15T04:25:04;9.10;;;2.58;;
27383;SDS011;14851;51.166;4.760;2024-02-15T04:27:32;10.65;;;3.47;;
27383;SDS011;14851;51.166;4.760;2024-02-15T04:29:58;8.73;;;3.00;;
27383;SDS011;14851;51.166;4.760;2024-02-15T04:32:27;8.23;;;3.22;;
27383;SDS011;14851;51.166;4.760;2024-02-15T04:34:54;10.45;;;2.80;;
27383;SDS011;14851;51.166;4.760;2024-02-15T04:37:20;9.15;;;3.00;;
27383;SDS011;14851;51.166;4.760;2024-02-15T04:39:46;7.82;;;2.83;;
27383;SDS011;14851;51.166;4.760;2024-02-15T04:42:13;9.02;;;3.05;;
27383;SDS011;14851;51.166;4.760;2024-02-15T04:44:41;7.65;;;2.53;;
27383;SDS011;14851;51.166;4.760;2024-02-15T04:47:07;9.07;;;2.40;;
27383;SDS011;14851;51.166;4.760;2024-02-15T04:49:34;9.32;;;2.95;;
27383;SDS011;14851;51.166;4.760;2024-02-15T04:52:04;8.38;;;2.75;;
27383;SDS011;14851;51.166;4.760;2024-02-15T04:54:37;7.60;;;2.38;;
27383;SDS011;14851;51.166;4.760;2024-02-15T04:57:09;8.98;;;3.17;;
27383;SDS011;14851;51.166;4.760;2024-02-15T04:59:39;9.80;;;2.50;;
27383;SDS011;14851;51.166;4.760;2024-02-15T05:02:06;7.03;;;2.15;;
27383;SDS011;14851;51.166;4.760;2024-02-15T05:04:42;8.52;;;2.20;;
27383;SDS011;14851;51.166;4.760;2024-02-15T05:07:13;6.97;;;2.33;;
27383;SDS011;14851;51.166;4.760;2024-02-15T05:09:48;5.00;;;1.90;;
27383;SDS011;14851;51.166;4.760;2024-02-15T05:12:24;8.07;;;2.20;;
27383;SDS011;14851;51.166;4.760;2024-02-15T05:14:53;8.23;;;2.58;;
27383;SDS011;14851;51.166;4.760;2024-02-15T05:17:19;6.05;;;2.55;;
27383;SDS011;14851;51.166;4.760;2024-02-15T05:19:46;7.68;;;2.53;;
27383;SDS011;14851;51.166;4.760;2024-02-15T05:22:13;9.40;;;2.45;;
27383;SDS011;14851;51.166;4.760;2024-02-15T05:24:40;5.10;;;1.75;;
27383;SDS011;14851;51.166;4.760;2024-02-15T05:27:06;6.10;;;2.40;;
27383;SDS011;14851;51.166;4.760;2024-02-15T05:29:33;8.52;;;2.05;;
27383;SDS011;14851;51.166;4.760;2024-02-15T05:32:03;6.82;;;1.92;;
27383;SDS011;14851;51.166;4.760;2024-02-15T05:34:29;8.75;;;2.42;;
27383;SDS011;14851;51.166;4.760;2024-02-15T05:36:55;7.05;;;2.38;;
27383;SDS011;14851;51.166;4.760;2024-02-15T05:39:22;5.78;;;2.10;;
27383;SDS011;14851;51.166;4.760;2024-02-15T05:41:48;6.57;;;2.13;;
27383;SDS011;14851;51.166;4.760;2024-02-15T05:44:14;5.10;;;2.40;;
27383;SDS011;14851;51.166;4.760;2024-02-15T05:46:48;4.28;;;1.70;;
27383;SDS011;14851;51.166;4.760;2024-02-15T05:49:20;7.30;;;2.42;;
27383;SDS011;14851;51.166;4.760;2024-02-15T05:51:49;4.88;;;2.03;;
27383;SDS011;14851;51.166;4.760;2024-02-15T05:54:15;6.32;;;1.80;;
27383;SDS011;14851;51.166;4.760;2024-02-15T05:56:43;5.47;;;2.17;;
27383;SDS011;14851;51.166;4.760;2024-02-15T05:59:09;7.70;;;2.25;;
27383;SDS011;14851;51.166;4.760;2024-02-15T06:01:36;7.85;;;2.22;;
27383;SDS011;14851;51.166;4.760;2024-02-15T06:04:06;4.35;;;1.95;;
27383;SDS011;14851;51.166;4.760;2024-02-15T06:06:36;6.90;;;2.10;;
27383;SDS011;14851;51.166;4.760;2024-02-15T06:09:03;3.92;;;2.00;;
27383;SDS011;14851;51.166;4.760;2024-02-15T06:11:30;7.70;;;1.77;;
27383;SDS011;14851;51.166;4.760;2024-02-15T06:13:56;7.15;;;2.25;;
27383;SDS011;14851;51.166;4.760;2024-02-15T06:16:23;6.38;;;2.00;;
27383;SDS011;14851;51.166;4.760;2024-02-15T06:18:49;7.28;;;2.58;;
27383;SDS011;14851;51.166;4.760;2024-02-15T06:21:21;4.93;;;2.00;;
27383;SDS011;14851;51.166;4.760;2024-02-15T06:23:49;7.05;;;1.83;;
27383;SDS011;14851;51.166;4.760;2024-02-15T06:26:18;10.00;;;2.22;;
27383;SDS011;14851;51.166;4.760;2024-02-15T06:32:48;6.07;;;2.05;;
27383;SDS011;14851;51.166;4.760;2024-02-15T06:35:36;6.60;;;2.28;;
27383;SDS011;14851;51.166;4.760;2024-02-15T06:38:29;8.70;;;2.28;;
27383;SDS011;14851;51.166;4.760;2024-02-15T06:41:20;9.57;;;2.42;;
27383;SDS011;14851;51.166;4.760;2024-02-15T06:43:46;10.93;;;2.42;;
27383;SDS011;14851;51.166;4.760;2024-02-15T06:46:12;7.75;;;2.47;;
27383;SDS011;14851;51.166;4.760;2024-02-15T06:48:41;6.70;;;2.47;;
27383;SDS011;14851;51.166;4.760;2024-02-15T06:51:13;6.50;;;2.75;;
27383;SDS011;14851;51.166;4.760;2024-02-15T06:53:43;9.00;;;2.87;;
27383;SDS011;14851;51.166;4.760;2024-02-15T06:56:09;9.45;;;2.80;;
27383;SDS011;14851;51.166;4.760;2024-02-15T06:58:36;8.32;;;3.03;;
27383;SDS011;14851;51.166;4.760;2024-02-15T07:01:02;6.93;;;3.00;;
27383;SDS011;14851;51.166;4.760;2024-02-15T07:03:29;7.55;;;3.20;;
27383;SDS011;14851;51.166;4.760;2024-02-15T07:05:57;9.45;;;3.53;;
27383;SDS011;14851;51.166;4.760;2024-02-15T07:08:23;8.25;;;3.15;;
27383;SDS011;14851;51.166;4.760;2024-02-15T07:10:50;13.70;;;3.22;;
27383;SDS011;14851;51.166;4.760;2024-02-15T07:13:22;7.85;;;3.33;;
27383;SDS011;14851;51.166;4.760;2024-02-15T07:15:52;6.75;;;3.40;;
27383;SDS011;14851;51.166;4.760;2024-02-15T07:18:18;10.15;;;3.13;;
27383;SDS011;14851;51.166;4.760;2024-02-15T07:20:47;8.30;;;3.03;;
27383;SDS011;14851;51.166;4.760;2024-02-15T07:23:13;11.30;;;3.17;;
27383;SDS011;14851;51.166;4.760;2024-02-15T07:25:42;11.85;;;3.70;;
27383;SDS011;14851;51.166;4.760;2024-02-15T07:28:08;7.68;;;3.47;;
27383;SDS011;14851;51.166;4.760;2024-02-15T07:30:35;6.85;;;2.92;;
27383;SDS011;14851;51.166;4.760;2024-02-15T07:33:02;9.90;;;3.42;;
27383;SDS011;14851;51.166;4.760;2024-02-15T07:35:29;7.50;;;3.70;;
27383;SDS011;14851;51.166;4.760;2024-02-15T07:37:58;12.27;;;3.63;;
27383;SDS011;14851;51.166;4.760;2024-02-15T07:40:26;8.40;;;3.80;;
27383;SDS011;14851;51.166;4.760;2024-02-15T07:42:58;7.38;;;3.58;;
27383;SDS011;14851;51.166;4.760;2024-02-15T07:45:24;10.38;;;3.30;;
27383;SDS011;14851;51.166;4.760;2024-02-15T07:47:53;7.47;;;3.28;;
27383;SDS011;14851;51.166;4.760;2024-02-15T07:50:22;7.85;;;2.83;;
27383;SDS011;14851;51.166;4.760;2024-02-15T07:52:53;11.18;;;3.53;;
27383;SDS011;14851;51.166;4.760;2024-02-15T07:55:19;9.60;;;3.58;;
27383;SDS011;14851;51.166;4.760;2024-02-15T07:57:45;10.40;;;3.35;;
27383;SDS011;14851;51.166;4.760;2024-02-15T08:00:13;9.18;;;3.55;;
27383;SDS011;14851;51.166;4.760;2024-02-15T08:02:42;7.95;;;3.03;;
27383;SDS011;14851;51.166;4.760;2024-02-15T08:05:14;7.90;;;3.33;;
27383;SDS011;14851;51.166;4.760;2024-02-15T08:07:44;7.53;;;3.03;;
27383;SDS011;14851;51.166;4.760;2024-02-15T08:10:13;5.93;;;3.08;;
27383;SDS011;14851;51.166;4.760;2024-02-15T08:12:41;6.45;;;2.17;;
27383;SDS011;14851;51.166;4.760;2024-02-15T08:15:09;6.80;;;2.53;;
27383;SDS011;14851;51.166;4.760;2024-02-15T08:17:42;8.82;;;2.83;;
27383;SDS011;14851;51.166;4.760;2024-02-15T08:20:13;7.55;;;2.75;;
27383;SDS011;14851;51.166;4.760;2024-02-15T08:22:40;8.85;;;2.92;;
27383;SDS011;14851;51.166;4.760;2024-02-15T08:25:11;7.88;;;2.42;;
27383;SDS011;14851;51.166;4.760;2024-02-15T08:27:41;6.20;;;2.42;;
27383;SDS011;14851;51.166;4.760;2024-02-15T08:34:01;5.78;;;2.40;;
27383;SDS011;14851;51.166;4.760;2024-02-15T08:36:31;10.07;;;2.95;;
27383;SDS011;14851;51.166;4.760;2024-02-15T08:38:57;7.40;;;2.63;;
27383;SDS011;14851;51.166;4.760;2024-02-15T08:41:24;7.63;;;2.75;;
27383;SDS011;14851;51.166;4.760;2024-02-15T08:43:52;6.28;;;1.98;;
27383;SDS011;14851;51.166;4.760;2024-02-15T08:46:19;8.35;;;2.20;;
27383;SDS011;14851;51.166;4.760;2024-02-15T08:48:46;7.97;;;2.17;;
27383;SDS011;14851;51.166;4.760;2024-02-15T08:51:36;5.43;;;2.03;;
27383;SDS011;14851;51.166;4.760;2024-02-15T08:54:05;8.98;;;2.20;;
27383;SDS011;14851;51.166;4.760;2024-02-15T08:56:47;6.07;;;2.17;;
27383;SDS011;14851;51.166;4.760;2024-02-15T08:59:17;6.75;;;1.90;;
27383;SDS011;14851;51.166;4.760;2024-02-15T09:01:53;7.95;;;1.90;;
27383;SDS011;14851;51.166;4.760;2024-02-15T09:04:32;9.07;;;2.05;;
27383;SDS011;14851;51.166;4.760;2024-02-15T09:07:06;9.13;;;1.80;;
27383;SDS011;14851;51.166;4.760;2024-02-15T09:09:38;6.55;;;2.00;;
27383;SDS011;14851;51.166;4.760;2024-02-15T09:12:13;6.53;;;1.90;;
27383;SDS011;14851;51.166;4.760;2024-02-15T09:14:40;7.38;;;1.92;;
27383;SDS011;14851;51.166;4.760;2024-02-15T09:17:06;7.88;;;2.55;;
27383;SDS011;14851;51.166;4.760;2024-02-15T09:19:33;8.30;;;2.03;;
27383;SDS011;14851;51.166;4.760;2024-02-15T09:22:01;4.53;;;1.60;;
27383;SDS011;14851;51.166;4.760;2024-02-15T09:24:32;5.68;;;1.98;;
27383;SDS011;14851;51.166;4.760;2024-02-15T09:26:59;7.50;;;1.95;;
27383;SDS011;14851;51.166;4.760;2024-02-15T09:29:29;5.43;;;1.85;;
27383;SDS011;14851;51.166;4.760;2024-02-15T09:31:55;5.68;;;1.63;;
27383;SDS011;14851;51.166;4.760;2024-02-15T09:34:23;10.55;;;1.95;;
27383;SDS011;14851;51.166;4.760;2024-02-15T09:36:50;4.53;;;1.80;;
27383;SDS011;14851;51.166;4.760;2024-02-15T09:39:16;4.93;;;1.50;;
27383;SDS011;14851;51.166;4.760;2024-02-15T09:41:43;5.53;;;2.00;;
27383;SDS011;14851;51.166;4.760;2024-02-15T09:44:09;5.25;;;1.48;;
27383;SDS011;14851;51.166;4.760;2024-02-15T09:46:42;3.78;;;1.67;;
27383;SDS011;14851;51.166;4.760;2024-02-15T09:49:15;7.00;;;2.08;;
27383;SDS011;14851;51.166;4.760;2024-02-15T09:51:42;6.25;;;1.98;;
27383;SDS011;14851;51.166;4.760;2024-02-15T09:54:11;4.32;;;1.50;;
27383;SDS011;14851;51.166;4.760;2024-02-15T09:56:44;4.53;;;1.45;;
27383;SDS011;14851;51.166;4.760;2024-02-15T09:59:13;3.85;;;1.38;;
27383;SDS011;14851;51.166;4.760;2024-02-15T10:01:39;8.45;;;1.65;;
27383;SDS011;14851;51.166;4.760;2024-02-15T10:04:09;5.78;;;2.15;;
27383;SDS011;14851;51.166;4.760;2024-02-15T10:06:41;3.70;;;1.38;;
27383;SDS011;14851;51.166;4.760;2024-02-15T10:09:27;4.97;;;1.60;;
27383;SDS011;14851;51.166;4.760;2024-02-15T10:11:56;3.72;;;1.42;;
27383;SDS011;14851;51.166;4.760;2024-02-15T10:14:32;3.72;;;1.30;;
27383;SDS011;14851;51.166;4.760;2024-02-15T10:17:08;2.65;;;1.48;;
27383;SDS011;14851;51.166;4.760;2024-02-15T10:19:37;7.50;;;1.98;;
27383;SDS011;14851;51.166;4.760;2024-02-15T10:22:07;5.20;;;1.25;;
27383;SDS011;14851;51.166;4.760;2024-02-15T10:24:35;3.65;;;1.35;;
27383;SDS011;14851;51.166;4.760;2024-02-15T10:27:02;3.42;;;1.33;;
27383;SDS011;14851;51.166;4.760;2024-02-15T10:29:38;7.70;;;1.58;;
27383;SDS011;14851;51.166;4.760;2024-02-15T10:32:07;3.28;;;1.10;;
27383;SDS011;14851;51.166;4.760;2024-02-15T10:34:43;3.35;;;1.23;;
27383;SDS011;14851;51.166;4.760;2024-02-15T10:37:13;4.20;;;1.10;;
27383;SDS011;14851;51.166;4.760;2024-02-15T10:39:44;3.55;;;1.00;;
27383;SDS011;14851;51.166;4.760;2024-02-15T10:42:12;5.28;;;1.42;;
27383;SDS011;14851;51.166;4.760;2024-02-15T10:44:43;4.55;;;1.60;;
27383;SDS011;14851;51.166;4.760;2024-02-15T10:47:10;3.63;;;1.30;;
27383;SDS011;14851;51.166;4.760;2024-02-15T10:49:39;4.82;;;1.55;;
27383;SDS011;14851;51.166;4.760;2024-02-15T10:52:06;3.33;;;1.08;;
27383;SDS011;14851;51.166;4.760;2024-02-15T10:54:40;6.07;;;1.63;;
27383;SDS011;14851;51.166;4.760;2024-02-15T10:57:12;6.35;;;1.55;;
27383;SDS011;14851;51.166;4.760;2024-02-15T10:59:59;5.32;;;1.85;;
27383;SDS011;14851;51.166;4.760;2024-02-15T11:02:42;4.10;;;1.70;;
27383;SDS011;14851;51.166;4.760;2024-02-15T11:05:13;5.75;;;1.85;;
27383;SDS011;14851;51.166;4.760;2024-02-15T11:07:46;6.78;;;2.15;;
27383;SDS011;14851;51.166;4.760;2024-02-15T11:10:12;3.67;;;1.58;;
27383;SDS011;14851;51.166;4.760;2024-02-15T11:12:42;4.73;;;2.13;;
27383;SDS011;14851;51.166;4.760;2024-02-15T11:15:17;7.55;;;1.73;;
27383;SDS011;14851;51.166;4.760;2024-02-15T11:18:04;6.45;;;2.05;;
27383;SDS011;14851;51.166;4.760;2024-02-15T11:23:11;4.63;;;1.65;;
27383;SDS011;14851;51.166;4.760;2024-02-15T11:31:08;4.88;;;1.70;;
27383;SDS011;14851;51.166;4.760;2024-02-15T11:33:38;4.75;;;1.40;;
27383;SDS011;14851;51.166;4.760;2024-02-15T11:38:32;4.70;;;1.13;;
27383;SDS011;14851;51.166;4.760;2024-02-15T11:41:03;5.03;;;1.70;;
27383;SDS011;14851;51.166;4.760;2024-02-15T11:46:13;4.28;;;1.48;;
27383;SDS011;14851;51.166;4.760;2024-02-15T11:48:45;4.75;;;1.60;;
27383;SDS011;14851;51.166;4.760;2024-02-15T11:59:20;2.35;;;1.10;;
27383;SDS011;14851;51.166;4.760;2024-02-15T12:02:00;3.58;;;1.38;;
27383;SDS011;14851;51.166;4.760;2024-02-15T12:04:47;3.40;;;1.13;;
27383;SDS011;14851;51.166;4.760;2024-02-15T12:07:34;3.75;;;1.00;;
27383;SDS011;14851;51.166;4.760;2024-02-15T12:10:22;5.28;;;1.23;;
27383;SDS011;14851;51.166;4.760;2024-02-15T12:13:09;3.55;;;1.20;;
27383;SDS011;14851;51.166;4.760;2024-02-15T12:16:01;3.20;;;1.23;;
27383;SDS011;14851;51.166;4.760;2024-02-15T12:18:49;2.85;;;1.13;;
27383;SDS011;14851;51.166;4.760;2024-02-15T12:23:53;1.85;;;0.80;;
27383;SDS011;14851;51.166;4.760;2024-02-15T12:26:19;2.63;;;1.10;;
27383;SDS011;14851;51.166;4.760;2024-02-15T12:28:58;3.13;;;0.80;;
27383;SDS011;14851;51.166;4.760;2024-02-15T12:31:26;4.30;;;0.98;;
27383;SDS011;14851;51.166;4.760;2024-02-15T12:34:02;3.97;;;0.95;;
27383;SDS011;14851;51.166;4.760;2024-02-15T12:36:42;1.60;;;0.80;;
27383;SDS011;14851;51.166;4.760;2024-02-15T12:39:20;3.53;;;0.80;;
27383;SDS011;14851;51.166;4.760;2024-02-15T12:41:50;2.95;;;0.63;;
27383;SDS011;14851;51.166;4.760;2024-02-15T12:44:20;4.37;;;0.97;;
27383;SDS011;14851;51.166;4.760;2024-02-15T12:46:46;2.30;;;0.90;;
27383;SDS011;14851;51.166;4.760;2024-02-15T12:51:51;3.30;;;0.77;;
27383;SDS011;14851;51.166;4.760;2024-02-15T12:54:50;2.25;;;0.90;;
27383;SDS011;14851;51.166;4.760;2024-02-15T12:57:34;3.15;;;0.98;;
27383;SDS011;14851;51.166;4.760;2024-02-15T13:00:01;4.20;;;1.00;;
27383;SDS011;14851;51.166;4.760;2024-02-15T13:02:39;4.13;;;0.98;;
27383;SDS011;14851;51.166;4.760;2024-02-15T13:05:06;2.25;;;0.70;;
27383;SDS011;14851;51.166;4.760;2024-02-15T13:07:36;1.70;;;0.70;;
27383;SDS011;14851;51.166;4.760;2024-02-15T13:10:04;3.75;;;0.75;;
27383;SDS011;14851;51.166;4.760;2024-02-15T13:12:37;4.13;;;1.00;;
27383;SDS011;14851;51.166;4.760;2024-02-15T13:15:04;3.97;;;0.95;;
27383;SDS011;14851;51.166;4.760;2024-02-15T13:17:32;2.35;;;0.85;;
27383;SDS011;14851;51.166;4.760;2024-02-15T13:19:59;1.73;;;0.70;;
27383;SDS011;14851;51.166;4.760;2024-02-15T13:22:39;1.98;;;0.80;;
27383;SDS011;14851;51.166;4.760;2024-02-15T13:25:12;3.40;;;1.00;;
27383;SDS011;14851;51.166;4.760;2024-02-15T13:27:46;3.78;;;0.90;;
27383;SDS011;14851;51.166;4.760;2024-02-15T13:30:13;4.40;;;0.80;;
27383;SDS011;14851;51.166;4.760;2024-02-15T13:32:39;1.92;;;0.75;;
27383;SDS011;14851;51.166;4.760;2024-02-15T13:35:09;3.15;;;0.80;;
27383;SDS011;14851;51.166;4.760;2024-02-15T13:37:42;3.25;;;1.02;;
27383;SDS011;14851;51.166;4.760;2024-02-15T13:40:10;0.98;;;0.60;;
27383;SDS011;14851;51.166;4.760;2024-02-15T13:42:46;3.67;;;0.70;;
27383;SDS011;14851;51.166;4.760;2024-02-15T13:45:21;3.67;;;1.20;;
27383;SDS011;14851;51.166;4.760;2024-02-15T13:47:52;1.90;;;0.60;;
27383;SDS011;14851;51.166;4.760;2024-02-15T13:50:21;1.35;;;0.77;;
27383;SDS011;14851;51.166;4.760;2024-02-15T13:52:49;2.67;;;0.90;;
27383;SDS011;14851;51.166;4.760;2024-02-15T13:55:16;2.70;;;0.80;;
27383;SDS011;14851;51.166;4.760;2024-02-15T13:57:46;1.67;;;0.90;;
27383;SDS011;14851;51.166;4.760;2024-02-15T14:00:14;2.38;;;0.77;;
27383;SDS011;14851;51.166;4.760;2024-02-15T14:02:49;2.42;;;0.80;;
27383;SDS011;14851;51.166;4.760;2024-02-15T14:05:20;2.17;;;0.80;;
27383;SDS011;14851;51.166;4.760;2024-02-15T14:07:51;4.07;;;0.90;;
27383;SDS011;14851;51.166;4.760;2024-02-15T14:10:22;3.83;;;0.70;;
27383;SDS011;14851;51.166;4.760;2024-02-15T14:12:52;2.88;;;0.73;;
27383;SDS011;14851;51.166;4.760;2024-02-15T14:15:24;4.07;;;1.00;;
27383;SDS011;14851;51.166;4.760;2024-02-15T14:17:51;3.83;;;0.90;;
27383;SDS011;14851;51.166;4.760;2024-02-15T14:20:17;1.63;;;0.82;;
27383;SDS011;14851;51.166;4.760;2024-02-15T14:22:46;4.97;;;1.10;;
27383;SDS011;14851;51.166;4.760;2024-02-15T14:25:21;2.05;;;0.90;;
27383;SDS011;14851;51.166;4.760;2024-02-15T14:27:48;2.60;;;0.82;;
27383;SDS011;14851;51.166;4.760;2024-02-15T14:30:15;2.30;;;0.90;;
27383;SDS011;14851;51.166;4.760;2024-02-15T14:32:59;4.88;;;1.42;;
27383;SDS011;14851;51.166;4.760;2024-02-15T14:35:26;3.28;;;0.90;;
27383;SDS011;14851;51.166;4.760;2024-02-15T14:37:55;2.92;;;0.85;;
27383;SDS011;14851;51.166;4.760;2024-02-15T14:40:23;1.95;;;0.90;;
27383;SDS011;14851;51.166;4.760;2024-02-15T14:42:49;4.10;;;1.02;;
27383;SDS011;14851;51.166;4.760;2024-02-15T14:45:18;5.25;;;1.10;;
27383;SDS011;14851;51.166;4.760;2024-02-15T14:47:45;2.22;;;0.85;;
27383;SDS011;14851;51.166;4.760;2024-02-15T14:50:12;1.35;;;0.68;;
27383;SDS011;14851;51.166;4.760;2024-02-15T14:52:39;2.38;;;0.90;;
27383;SDS011;14851;51.166;4.760;2024-02-15T14:55:10;4.03;;;1.20;;
27383;SDS011;14851;51.166;4.760;2024-02-15T14:57:39;4.53;;;0.90;;
27383;SDS011;14851;51.166;4.760;2024-02-15T15:00:23;5.53;;;0.90;;
27383;SDS011;14851;51.166;4.760;2024-02-15T15:02:53;3.03;;;0.80;;
27383;SDS011;14851;51.166;4.760;2024-02-15T15:08:07;1.83;;;0.80;;
27383;SDS011;14851;51.166;4.760;2024-02-15T15:10:52;1.92;;;0.60;;
27383;SDS011;14851;51.166;4.760;2024-02-15T15:13:39;1.48;;;0.80;;
27383;SDS011;14851;51.166;4.760;2024-02-15T15:16:08;3.35;;;0.80;;
27383;SDS011;14851;51.166;4.760;2024-02-15T15:18:39;1.85;;;0.60;;
27383;SDS011;14851;51.166;4.760;2024-02-15T15:21:11;3.20;;;0.60;;
27383;SDS011;14851;51.166;4.760;2024-02-15T15:23:37;1.95;;;0.70;;
27383;SDS011;14851;51.166;4.760;2024-02-15T15:26:05;3.40;;;0.70;;
27383;SDS011;14851;51.166;4.760;2024-02-15T15:28:39;5.03;;;0.82;;
27383;SDS011;14851;51.166;4.760;2024-02-15T15:31:09;3.33;;;0.93;;
27383;SDS011;14851;51.166;4.760;2024-02-15T15:33:35;2.90;;;0.87;;
27383;SDS011;14851;51.166;4.760;2024-02-15T15:36:05;1.77;;;0.60;;
27383;SDS011;14851;51.166;4.760;2024-02-15T15:38:31;1.83;;;0.70;;